Time;durP1;ratioP1;P1;durP2;ratioP2;P2;SDS_P1;SDS_P2;PMS_P1;PMS_P2;Temp;Humidity;BMP_temperature;BMP_pressure;BME280_temperature;BME280_humidity;BME280_pressure;Samples;Min_cycle;Max_cycle;Signal;HPM_P1;HPM_P2
2022/03/23 00:01:09;;;;;;;12.57;6.97;;;1.60;99.90;;;;;;4937186;29;20394;-84
2022/03/23 00:03:37;;;;;;;13.52;7.05;;;1.60;99.90;;;;;;4935858;29;20405;-83
2022/03/23 00:06:05;;;;;;;12.95;7.10;;;1.60;99.90;;;;;;4936944;29;20413;-84
2022/03/23 00:08:33;;;;;;;14.82;7.97;;;1.50;99.90;;;;;;4948684;28;20418;-84
2022/03/23 00:11:01;;;;;;;13.85;7.32;;;1.60;99.90;;;;;;4935656;29;20525;-82
2022/03/23 00:13:28;;;;;;;13.60;7.88;;;1.60;99.90;;;;;;4936703;29;20750;-83
2022/03/23 00:15:56;;;;;;;14.60;8.52;;;1.60;99.90;;;;;;4936693;29;21074;-84
2022/03/23 00:18:24;;;;;;;13.88;7.57;;;1.50;99.90;;;;;;4935441;29;20813;-83
2022/03/23 00:20:52;;;;;;;15.10;8.73;;;1.60;99.90;;;;;;4935248;29;20403;-83
2022/03/23 00:23:20;;;;;;;14.77;8.55;;;1.50;99.90;;;;;;4936626;29;20398;-83
2022/03/23 00:25:48;;;;;;;14.95;8.95;;;1.50;99.90;;;;;;4935607;29;20426;-83
2022/03/23 00:28:16;;;;;;;16.73;9.30;;;1.50;99.90;;;;;;4935292;29;20434;-83
2022/03/23 00:30:43;;;;;;;15.52;9.23;;;1.50;99.90;;;;;;4936444;29;20983;-83
2022/03/23 00:33:29;;;;;;;15.87;10.00;;;1.50;99.90;;;;;;4935088;29;20394;-83
2022/03/23 00:35:57;;;;;;;18.20;10.27;;;1.60;99.90;;;;;;4935177;29;20497;-84
2022/03/23 00:38:25;;;;;;;18.50;10.27;;;1.50;99.90;;;;;;4936429;29;20401;-84
2022/03/23 00:40:53;;;;;;;18.10;10.55;;;1.60;99.90;;;;;;4936384;29;20888;-83
2022/03/23 00:43:21;;;;;;;19.98;11.70;;;1.50;99.90;;;;;;4935154;29;20914;-84
2022/03/23 00:45:48;;;;;;;16.98;10.52;;;1.50;99.90;;;;;;4936162;29;20485;-83
2022/03/23 00:48:18;;;;;;;20.42;11.45;;;1.50;99.90;;;;;;4919505;29;20398;-83
2022/03/23 00:50:46;;;;;;;20.30;11.50;;;1.50;99.90;;;;;;4934933;29;20881;-83
2022/03/23 00:53:13;;;;;;;20.52;11.75;;;1.60;99.90;;;;;;4934956;29;20398;-83
2022/03/23 00:55:41;;;;;;;19.13;11.70;;;1.60;99.90;;;;;;4934767;29;20402;-83
2022/03/23 00:58:09;;;;;;;19.23;11.50;;;1.60;99.90;;;;;;4936031;29;20769;-84
2022/03/23 01:00:45;;;;;;;18.88;11.45;;;1.60;99.90;;;;;;4934813;29;20417;-83
2022/03/23 01:03:13;;;;;;;21.85;12.27;;;1.60;99.90;;;;;;4935155;29;20973;-83
2022/03/23 01:05:41;;;;;;;20.42;12.68;;;1.60;99.90;;;;;;4934901;29;20418;-83
2022/03/23 01:08:11;;;;;;;19.33;12.00;;;1.60;99.90;;;;;;4936255;29;20425;-83
2022/03/23 01:10:39;;;;;;;21.73;12.07;;;1.50;99.90;;;;;;4935650;29;20398;-83
2022/03/23 01:13:07;;;;;;;22.17;12.98;;;1.50;99.90;;;;;;4934641;29;20834;-83
2022/03/23 01:15:35;;;;;;;21.13;12.98;;;1.50;99.90;;;;;;4934458;29;20459;-83
2022/03/23 01:18:04;;;;;;;21.92;12.32;;;1.50;99.90;;;;;;4918771;29;20406;-83
2022/03/23 01:20:32;;;;;;;20.35;12.48;;;1.40;99.90;;;;;;4935028;29;20398;-84
2022/03/23 01:23:00;;;;;;;22.75;13.05;;;1.40;99.90;;;;;;4918803;29;20409;-83
2022/03/23 01:25:27;;;;;;;22.00;12.68;;;1.50;99.90;;;;;;4935576;29;20394;-83
2022/03/23 01:27:56;;;;;;;22.80;13.07;;;1.40;99.90;;;;;;4918598;29;20481;-84
2022/03/23 01:30:24;;;;;;;22.50;13.63;;;1.30;99.90;;;;;;4934099;29;20410;-83
2022/03/23 01:32:52;;;;;;;23.33;14.05;;;1.40;99.90;;;;;;4934179;29;20413;-83
2022/03/23 01:35:20;;;;;;;23.07;13.60;;;1.40;99.90;;;;;;4935317;29;20396;-83
2022/03/23 01:37:48;;;;;;;21.50;13.18;;;1.40;99.90;;;;;;4918610;29;20427;-84
2022/03/23 01:40:16;;;;;;;23.63;14.32;;;1.30;99.90;;;;;;4934251;29;20476;-83
2022/03/23 01:42:44;;;;;;;24.33;14.20;;;1.30;99.90;;;;;;4935260;29;20398;-83
2022/03/23 01:45:12;;;;;;;22.77;13.83;;;1.30;99.90;;;;;;4935212;29;20827;-83
2022/03/23 01:47:40;;;;;;;23.30;14.63;;;1.30;99.90;;;;;;4933808;29;20461;-83
2022/03/23 01:50:09;;;;;;;25.73;14.70;;;1.30;99.90;;;;;;4942301;29;20404;-84
2022/03/23 01:52:38;;;;;;;24.85;15.43;;;1.30;99.90;;;;;;4936222;29;20469;-83
2022/03/23 01:55:10;;;;;;;22.88;14.00;;;1.30;99.90;;;;;;4935005;29;20426;-84
2022/03/23 01:57:40;;;;;;;25.35;15.38;;;1.20;99.90;;;;;;4918190;29;20402;-83
2022/03/23 02:00:09;;;;;;;24.38;15.43;;;1.20;99.90;;;;;;4934706;29;20411;-84
2022/03/23 02:02:42;;;;;;;25.13;14.95;;;1.20;99.90;;;;;;4933811;29;20809;-83
2022/03/23 02:05:14;;;;;;;25.30;15.93;;;1.20;99.90;;;;;;4933677;29;20791;-83
2022/03/23 02:07:49;;;;;;;25.73;15.95;;;1.10;99.90;;;;;;4933720;29;20410;-83
2022/03/23 02:10:17;;;;;;;25.23;15.88;;;1.10;99.90;;;;;;4933634;29;20417;-84
2022/03/23 02:13:00;;;;;;;25.17;15.50;;;1.10;99.90;;;;;;4933469;29;20493;-83
2022/03/23 02:15:29;;;;;;;25.10;15.40;;;1.10;99.90;;;;;;4935138;29;20782;-82
2022/03/23 02:17:57;;;;;;;24.35;16.45;;;1.00;99.90;;;;;;4933837;29;20775;-83
2022/03/23 02:20:25;;;;;;;26.27;16.58;;;1.00;99.90;;;;;;4933503;29;20394;-83
2022/03/23 02:22:54;;;;;;;28.08;16.23;;;0.90;99.90;;;;;;4933578;29;20975;-85
2022/03/23 02:25:26;;;;;;;26.07;16.07;;;0.90;99.90;;;;;;4933531;29;20430;-84
2022/03/23 02:27:55;;;;;;;25.55;16.33;;;0.90;99.90;;;;;;4934544;29;20401;-83
2022/03/23 02:30:23;;;;;;;27.67;17.38;;;0.90;99.90;;;;;;4934553;29;20901;-83
2022/03/23 02:32:53;;;;;;;30.88;18.33;;;0.90;99.90;;;;;;4932859;29;20780;-83
2022/03/23 02:35:20;;;;;;;26.90;16.27;;;0.90;99.90;;;;;;4933241;29;20544;-82
2022/03/23 02:37:48;;;;;;;25.48;16.35;;;0.90;99.90;;;;;;4933084;29;20406;-83
2022/03/23 02:40:16;;;;;;;26.73;17.25;;;0.80;99.90;;;;;;4933331;29;20880;-83
2022/03/23 02:42:44;;;;;;;27.00;16.40;;;0.80;99.90;;;;;;4934314;29;20409;-83
2022/03/23 02:45:11;;;;;;;24.67;15.93;;;0.80;99.90;;;;;;4933325;29;20422;-83
2022/03/23 02:47:41;;;;;;;26.83;16.08;;;0.70;99.90;;;;;;4933079;29;20754;-83
2022/03/23 02:50:09;;;;;;;25.60;16.55;;;0.70;99.90;;;;;;4933064;29;20402;-83
2022/03/23 03:01:52;;;;;;;27.90;18.20;;;0.80;99.90;;;;;;4934167;29;20420;-83
2022/03/23 03:04:07;;;;;;;27.48;17.45;;;0.80;99.90;;;;;;4934215;29;20398;-83
2022/03/23 03:06:34;;;;;;;27.30;17.30;;;0.80;99.90;;;;;;4934119;29;20401;-84
2022/03/23 03:09:02;;;;;;;29.77;18.07;;;0.70;99.90;;;;;;4934135;29;20477;-83
2022/03/23 03:11:30;;;;;;;27.98;17.40;;;0.70;99.90;;;;;;4932863;29;20390;-83
2022/03/23 03:13:58;;;;;;;29.35;17.70;;;0.70;99.90;;;;;;4932915;29;20410;-83
2022/03/23 03:16:26;;;;;;;29.25;17.30;;;0.70;99.90;;;;;;4933025;29;20751;-83
2022/03/23 03:18:54;;;;;;;28.40;17.33;;;0.70;99.90;;;;;;4940191;29;20393;-83
2022/03/23 03:21:22;;;;;;;26.75;17.20;;;0.70;99.90;;;;;;4951976;29;20388;-83
2022/03/23 03:23:50;;;;;;;30.47;18.77;;;0.60;99.90;;;;;;4952095;29;21067;-83
2022/03/23 03:26:18;;;;;;;26.95;18.08;;;0.60;99.90;;;;;;4952056;29;20404;-84
2022/03/23 03:28:46;;;;;;;28.63;18.13;;;0.50;99.90;;;;;;4953129;29;20459;-83
2022/03/23 03:31:15;;;;;;;29.27;18.88;;;0.60;99.90;;;;;;4936171;29;20392;-84
2022/03/23 03:33:44;;;;;;;29.50;18.58;;;0.60;99.90;;;;;;4952045;29;20440;-82
2022/03/23 03:36:11;;;;;;;31.00;19.73;;;0.60;99.90;;;;;;4951873;29;20483;-83
2022/03/23 03:38:40;;;;;;;30.55;19.45;;;0.50;99.90;;;;;;4951884;29;20400;-83
2022/03/23 03:41:08;;;;;;;31.30;19.50;;;0.40;99.90;;;;;;4951959;29;20427;-83
2022/03/23 03:43:38;;;;;;;32.30;20.27;;;0.40;99.90;;;;;;4955813;28;20758;-83
2022/03/23 03:46:07;;;;;;;32.35;20.23;;;0.30;99.90;;;;;;4939610;29;20400;-83
2022/03/23 03:48:35;;;;;;;31.45;19.98;;;0.30;99.90;;;;;;4955161;29;20404;-82
2022/03/23 03:51:06;;;;;;;30.27;20.43;;;0.30;99.90;;;;;;4955210;29;20818;-83
2022/03/23 03:53:34;;;;;;;31.17;19.90;;;0.30;99.90;;;;;;4955163;29;20415;-83
2022/03/23 03:56:08;;;;;;;31.63;19.30;;;0.40;99.90;;;;;;4955192;29;20487;-84
2022/03/23 03:58:37;;;;;;;34.13;20.95;;;0.30;99.90;;;;;;4939074;28;20392;-83
2022/03/23 04:01:06;;;;;;;32.00;20.17;;;0.20;99.90;;;;;;4951639;29;20405;-83
2022/03/23 04:03:34;;;;;;;32.23;20.23;;;0.30;99.90;;;;;;4936895;29;20595;-83
2022/03/23 04:06:04;;;;;;;31.48;20.38;;;0.20;99.90;;;;;;4936931;29;20959;-82
2022/03/23 04:08:32;;;;;;;32.92;20.80;;;0.20;99.90;;;;;;4936879;29;20489;-83
2022/03/23 04:10:59;;;;;;;35.30;21.45;;;0.20;99.90;;;;;;4936904;29;20483;-84
2022/03/23 04:13:27;;;;;;;31.63;20.27;;;0.20;99.90;;;;;;4935427;29;20420;-82
2022/03/23 04:15:55;;;;;;;32.08;19.45;;;0.20;99.90;;;;;;4936829;29;20449;-82
2022/03/23 04:18:22;;;;;;;32.28;19.58;;;0.20;99.90;;;;;;4935540;29;20506;-82
2022/03/23 04:20:51;;;;;;;31.90;20.70;;;0.20;99.90;;;;;;4936721;29;20397;-83
2022/03/23 04:23:19;;;;;;;32.53;20.45;;;0.30;99.90;;;;;;4935552;29;20410;-83
2022/03/23 04:25:47;;;;;;;32.95;20.60;;;0.20;99.90;;;;;;4936639;29;20398;-83
2022/03/23 04:28:14;;;;;;;30.40;19.30;;;0.10;99.90;;;;;;4935470;29;20406;-83
2022/03/23 04:30:42;;;;;;;31.75;19.45;;;0.10;99.90;;;;;;4935317;29;20477;-83
2022/03/23 04:33:10;;;;;;;32.17;20.55;;;0.10;99.90;;;;;;4935509;29;20877;-82
2022/03/23 04:35:38;;;;;;;30.97;20.20;;;0.10;99.90;;;;;;4951248;29;20398;-83
2022/03/23 04:38:05;;;;;;;34.42;20.67;;;0.10;99.90;;;;;;4935328;29;20884;-83
2022/03/23 04:40:35;;;;;;;32.83;20.02;;;0.10;99.90;;;;;;4950946;29;20768;-82
2022/03/23 04:43:03;;;;;;;30.42;19.25;;;0.20;99.90;;;;;;4936209;29;20885;-82
2022/03/23 04:45:31;;;;;;;31.15;19.30;;;0.20;99.90;;;;;;4935074;29;20402;-83
2022/03/23 04:47:59;;;;;;;32.33;20.25;;;0.30;99.90;;;;;;4936103;29;20398;-83
2022/03/23 04:50:26;;;;;;;31.07;19.30;;;0.30;99.90;;;;;;4936189;29;20401;-83
2022/03/23 04:52:54;;;;;;;34.13;21.23;;;0.30;99.90;;;;;;4934941;29;20414;-83
2022/03/23 04:55:22;;;;;;;36.00;21.13;;;0.30;99.90;;;;;;4935250;29;20398;-84
2022/03/23 04:57:49;;;;;;;35.70;20.88;;;0.30;99.90;;;;;;4934933;29;20401;-83
2022/03/23 05:00:20;;;;;;;31.33;18.77;;;0.40;99.90;;;;;;4934329;29;20410;-83
2022/03/23 05:02:51;;;;;;;30.65;19.52;;;0.40;99.90;;;;;;4948922;29;20396;-83
2022/03/23 05:05:20;;;;;;;31.60;20.47;;;0.50;99.90;;;;;;4954038;29;20436;-83
2022/03/23 05:07:47;;;;;;;34.58;21.40;;;0.40;99.90;;;;;;4954988;29;20400;-83
2022/03/23 05:10:15;;;;;;;32.72;20.63;;;0.40;99.90;;;;;;4954875;29;20945;-82
2022/03/23 05:12:46;;;;;;;33.27;20.60;;;0.50;99.90;;;;;;4953241;29;20424;-83
2022/03/23 05:15:15;;;;;;;32.15;19.90;;;0.50;99.90;;;;;;4953714;29;20403;-83
2022/03/23 05:17:44;;;;;;;34.47;21.97;;;0.50;99.90;;;;;;4953487;29;20393;-83
2022/03/23 05:20:14;;;;;;;36.40;22.60;;;0.50;99.90;;;;;;4937808;29;20401;-84
2022/03/23 05:22:42;;;;;;;36.13;22.75;;;0.60;99.90;;;;;;4937558;29;20400;-82
2022/03/23 05:25:10;;;;;;;35.70;21.43;;;0.60;99.90;;;;;;4953492;28;20400;-83
2022/03/23 05:27:40;;;;;;;33.22;20.58;;;0.60;99.90;;;;;;4953451;29;20397;-83
2022/03/23 05:30:10;;;;;;;34.47;20.48;;;0.60;99.90;;;;;;4937573;29;20408;-84
2022/03/23 05:32:39;;;;;;;31.67;20.10;;;0.60;99.90;;;;;;4953184;29;20985;-82
2022/03/23 05:35:08;;;;;;;35.80;21.27;;;0.60;99.90;;;;;;4953394;29;20392;-83
2022/03/23 05:37:36;;;;;;;31.88;19.92;;;0.60;99.90;;;;;;4954370;28;20759;-83
2022/03/23 05:40:10;;;;;;;34.20;21.48;;;0.60;99.90;;;;;;4953093;29;20763;-83
2022/03/23 05:42:39;;;;;;;36.55;21.77;;;0.60;99.90;;;;;;4937420;29;20412;-83
2022/03/23 05:45:07;;;;;;;35.17;22.33;;;0.60;99.90;;;;;;4953153;29;20396;-83
2022/03/23 05:47:36;;;;;;;35.80;22.17;;;0.60;99.90;;;;;;4953109;29;20462;-83
2022/03/23 05:50:05;;;;;;;35.85;23.30;;;0.60;99.90;;;;;;4952926;29;20440;-83
2022/03/23 05:52:33;;;;;;;36.65;24.35;;;0.70;99.90;;;;;;4952707;29;20415;-83
2022/03/23 05:55:01;;;;;;;39.60;25.73;;;0.70;99.90;;;;;;4954104;29;20392;-83
2022/03/23 05:57:29;;;;;;;38.35;24.48;;;0.70;99.90;;;;;;4952759;29;20420;-83
2022/03/23 05:59:57;;;;;;;45.70;25.27;;;0.70;99.90;;;;;;4953965;28;20400;-83
2022/03/23 06:02:25;;;;;;;40.00;25.40;;;0.70;99.90;;;;;;4952923;29;20451;-83
2022/03/23 06:04:54;;;;;;;36.80;24.90;;;0.80;99.90;;;;;;4951383;28;20488;-83
2022/03/23 06:07:21;;;;;;;42.40;26.93;;;0.80;99.90;;;;;;4937073;29;20783;-84
2022/03/23 06:09:49;;;;;;;36.33;23.85;;;0.80;99.90;;;;;;4929129;29;20419;-83
2022/03/23 06:12:17;;;;;;;42.05;24.85;;;0.80;99.90;;;;;;4943448;29;20457;-82
2022/03/23 06:14:45;;;;;;;36.25;23.63;;;1.00;99.90;;;;;;4952020;29;20425;-83
2022/03/23 06:17:13;;;;;;;36.67;23.70;;;1.00;99.90;;;;;;4952467;29;20397;-83
2022/03/23 06:19:41;;;;;;;34.20;22.50;;;1.10;99.90;;;;;;4953905;29;20865;-83
2022/03/23 06:22:08;;;;;;;35.78;23.60;;;1.20;99.90;;;;;;4952516;29;20392;-83
2022/03/23 06:24:43;;;;;;;35.70;24.00;;;1.30;99.90;;;;;;4953472;29;20475;-83
2022/03/23 06:27:10;;;;;;;36.10;23.27;;;1.20;99.90;;;;;;4953592;29;20476;-82
2022/03/23 06:29:38;;;;;;;35.78;21.63;;;1.30;99.90;;;;;;4952337;29;20862;-82
2022/03/23 06:32:06;;;;;;;32.70;20.17;;;1.30;99.90;;;;;;4953488;29;20408;-83
2022/03/23 06:34:34;;;;;;;32.63;19.80;;;1.60;99.90;;;;;;4952050;29;20416;-82
2022/03/23 06:37:02;;;;;;;33.83;19.70;;;1.70;99.90;;;;;;4952213;29;20427;-83
2022/03/23 06:39:32;;;;;;;32.28;20.45;;;1.90;99.90;;;;;;4952106;29;20929;-83
2022/03/23 06:41:59;;;;;;;34.60;20.63;;;2.00;99.90;;;;;;4952180;29;20934;-83
2022/03/23 06:44:27;;;;;;;32.08;19.58;;;2.10;99.90;;;;;;4952172;29;21021;-83
2022/03/23 06:46:55;;;;;;;32.05;19.90;;;2.30;99.90;;;;;;4952163;29;20411;-83
2022/03/23 06:49:23;;;;;;;35.20;20.07;;;2.40;99.90;;;;;;4936392;29;20407;-83
2022/03/23 06:51:50;;;;;;;33.20;20.60;;;2.40;99.90;;;;;;4953338;29;20767;-83
2022/03/23 06:54:18;;;;;;;34.17;20.37;;;2.50;99.90;;;;;;4953345;29;20419;-83
2022/03/23 06:56:50;;;;;;;32.75;19.45;;;2.70;99.90;;;;;;4953377;28;20392;-83
2022/03/23 06:59:21;;;;;;;34.20;20.38;;;2.60;99.90;;;;;;4953130;29;20483;-83
2022/03/23 07:01:49;;;;;;;34.88;20.25;;;2.70;99.90;;;;;;4953657;29;20399;-84
2022/03/23 07:04:17;;;;;;;34.60;20.30;;;2.80;99.90;;;;;;4947591;29;20421;-83
2022/03/23 07:06:44;;;;;;;33.05;19.55;;;2.70;99.90;;;;;;4943627;29;20406;-83
2022/03/23 07:12:05;;;;;;;38.03;22.30;;;3.10;99.90;;;;;;4953247;28;20399;-83
2022/03/23 07:14:35;;;;;;;34.13;20.07;;;3.10;99.90;;;;;;4951934;29;20463;-83
2022/03/23 07:17:04;;;;;;;34.60;20.65;;;3.20;99.90;;;;;;4953678;28;20400;-83
2022/03/23 07:19:33;;;;;;;35.45;21.63;;;3.30;99.90;;;;;;4956955;28;20392;-83
2022/03/23 07:22:00;;;;;;;33.35;19.73;;;3.50;99.90;;;;;;4956859;29;20866;-83
2022/03/23 07:24:28;;;;;;;35.40;20.90;;;3.60;99.90;;;;;;4951977;29;20495;-83
2022/03/23 07:26:56;;;;;;;35.63;21.33;;;3.60;99.90;;;;;;4939740;29;20404;-83
2022/03/23 07:29:44;;;;;;;34.75;20.60;;;3.70;99.90;;;;;;4952268;29;20436;-83
2022/03/23 07:32:11;;;;;;;35.17;20.13;;;3.70;99.90;;;;;;4936455;29;20405;-83
2022/03/23 07:34:39;;;;;;;34.17;20.48;;;3.80;99.90;;;;;;4920643;29;20421;-83
2022/03/23 07:37:07;;;;;;;34.30;21.67;;;3.90;99.90;;;;;;4952091;29;20453;-83
2022/03/23 07:39:35;;;;;;;34.28;20.88;;;3.80;99.90;;;;;;4920414;29;20398;-83
2022/03/23 07:42:03;;;;;;;35.75;21.70;;;4.00;99.90;;;;;;4937279;29;20876;-83
2022/03/23 07:44:32;;;;;;;34.42;20.33;;;4.00;99.90;;;;;;4935931;29;20409;-83
2022/03/23 07:47:01;;;;;;;36.72;22.42;;;4.00;99.90;;;;;;4952025;29;20501;-83
2022/03/23 07:49:29;;;;;;;36.42;21.35;;;4.10;99.90;;;;;;4935936;29;20406;-83
2022/03/23 07:52:02;;;;;;;38.20;22.92;;;4.20;99.90;;;;;;4935863;29;20402;-83
2022/03/23 07:54:30;;;;;;;36.30;21.50;;;4.20;99.90;;;;;;4945390;29;20416;-83
2022/03/23 07:56:59;;;;;;;33.88;20.42;;;4.20;99.90;;;;;;4922556;29;20481;-83
2022/03/23 07:59:27;;;;;;;37.00;22.23;;;4.40;99.90;;;;;;4935634;29;20414;-83
2022/03/23 08:01:54;;;;;;;34.90;20.83;;;4.30;99.90;;;;;;4941892;29;20487;-83
2022/03/23 08:04:22;;;;;;;35.08;20.85;;;4.50;99.90;;;;;;4947814;29;20412;-83
2022/03/23 08:06:50;;;;;;;32.28;19.23;;;4.50;99.90;;;;;;4951504;29;20413;-83
2022/03/23 08:09:18;;;;;;;34.60;20.25;;;4.70;99.90;;;;;;4936857;29;20405;-83
2022/03/23 08:11:45;;;;;;;33.72;20.55;;;4.80;99.90;;;;;;4952086;29;20400;-84
2022/03/23 08:14:13;;;;;;;32.95;20.17;;;4.70;99.90;;;;;;4954790;29;20435;-83
2022/03/23 08:16:40;;;;;;;31.70;19.33;;;4.90;99.90;;;;;;4954626;29;20396;-82
2022/03/23 08:19:08;;;;;;;30.55;18.92;;;5.10;99.90;;;;;;4955796;28;20400;-83
2022/03/23 08:21:36;;;;;;;31.00;19.77;;;5.00;99.90;;;;;;4938624;29;20634;-83
2022/03/23 08:24:04;;;;;;;28.17;17.92;;;5.00;99.90;;;;;;4954495;29;20400;-83
2022/03/23 08:26:32;;;;;;;29.27;18.08;;;5.00;99.90;;;;;;4955627;28;20396;-83
2022/03/23 08:29:00;;;;;;;27.45;16.92;;;5.00;99.90;;;;;;4945778;28;20412;-84
2022/03/23 08:31:28;;;;;;;26.63;15.65;;;5.10;99.90;;;;;;4929654;29;20821;-84
2022/03/23 08:33:56;;;;;;;24.40;15.23;;;5.30;99.90;;;;;;4936334;29;20414;-83
2022/03/23 08:36:24;;;;;;;26.65;15.65;;;5.30;99.90;;;;;;4932990;29;20425;-83
2022/03/23 08:38:52;;;;;;;25.88;14.68;;;5.30;99.90;;;;;;4935203;29;20405;-83
2022/03/23 08:41:20;;;;;;;26.50;16.42;;;5.50;99.90;;;;;;4935188;29;20402;-83
2022/03/23 08:43:48;;;;;;;24.02;14.63;;;5.50;99.90;;;;;;4935336;29;20398;-84
2022/03/23 08:46:15;;;;;;;26.02;14.85;;;5.50;99.90;;;;;;4935026;29;20418;-83
2022/03/23 08:48:44;;;;;;;24.98;14.05;;;5.90;99.90;;;;;;4936275;29;20633;-83
2022/03/23 08:51:12;;;;;;;22.73;13.82;;;5.90;99.90;;;;;;4935039;29;20955;-83
2022/03/23 08:53:42;;;;;;;22.95;13.80;;;6.00;99.90;;;;;;4936059;29;20493;-84
2022/03/23 08:56:13;;;;;;;22.92;13.38;;;5.80;99.90;;;;;;4936215;29;20390;-83
2022/03/23 08:58:49;;;;;;;24.05;13.50;;;6.00;99.90;;;;;;4950565;29;20459;-83
2022/03/23 09:01:16;;;;;;;22.88;12.93;;;6.10;99.90;;;;;;4936889;29;20826;-84
2022/03/23 09:03:45;;;;;;;21.40;13.15;;;6.20;99.50;;;;;;4953928;29;20396;-84
2022/03/23 09:06:13;;;;;;;20.67;12.63;;;6.10;99.80;;;;;;4954170;29;20480;-83
2022/03/23 09:08:40;;;;;;;22.75;13.07;;;5.90;99.90;;;;;;4955192;28;20423;-83
2022/03/23 09:11:08;;;;;;;22.80;13.40;;;6.10;99.10;;;;;;4937836;29;20748;-84
2022/03/23 09:13:36;;;;;;;23.20;13.38;;;6.10;99.90;;;;;;4953626;29;20483;-84
2022/03/23 09:16:04;;;;;;;22.65;13.32;;;6.30;98.90;;;;;;4937917;29;20412;-84
2022/03/23 09:18:31;;;;;;;23.92;12.80;;;6.30;99.90;;;;;;4937831;29;20921;-84
2022/03/23 09:20:59;;;;;;;21.48;12.73;;;6.30;99.90;;;;;;4937932;29;20396;-83
2022/03/23 09:23:32;;;;;;;21.73;13.10;;;6.70;97.80;;;;;;4938457;29;20411;-84
2022/03/23 09:26:01;;;;;;;21.60;12.40;;;6.70;97.70;;;;;;4953542;29;20399;-84
2022/03/23 09:28:29;;;;;;;20.88;12.23;;;6.70;97.00;;;;;;4954642;29;20451;-84
2022/03/23 09:30:59;;;;;;;21.95;13.27;;;6.80;97.00;;;;;;4951702;29;21109;-83
2022/03/23 09:33:28;;;;;;;22.88;13.40;;;7.00;96.60;;;;;;4945918;29;20419;-84
2022/03/23 09:35:55;;;;;;;22.98;13.23;;;6.90;96.90;;;;;;4953380;29;20929;-84
2022/03/23 09:38:23;;;;;;;21.88;13.90;;;7.00;96.00;;;;;;4951901;29;20403;-84
2022/03/23 09:40:51;;;;;;;21.48;13.50;;;7.00;97.10;;;;;;4948950;28;20523;-84
2022/03/23 09:43:24;;;;;;;20.65;13.13;;;6.90;98.20;;;;;;4940286;28;20394;-85
2022/03/23 09:45:52;;;;;;;22.75;14.23;;;7.10;97.20;;;;;;4945406;29;20412;-84
2022/03/23 09:48:21;;;;;;;23.48;14.93;;;7.10;97.20;;;;;;4953179;29;20397;-86
2022/03/23 09:50:53;;;;;;;23.55;14.50;;;7.20;97.30;;;;;;4949844;29;20417;-85
2022/03/23 09:53:24;;;;;;;23.35;14.10;;;7.20;96.70;;;;;;4933952;29;20397;-85
2022/03/23 09:55:52;;;;;;;24.27;14.63;;;7.40;97.20;;;;;;4947122;29;20404;-84
2022/03/23 09:58:20;;;;;;;22.48;14.85;;;7.50;97.00;;;;;;4937035;29;20427;-84
2022/03/23 10:00:49;;;;;;;22.87;14.67;;;7.40;96.80;;;;;;4952802;29;20404;-84
2022/03/23 10:03:35;;;;;;;25.45;15.38;;;7.40;97.90;;;;;;4952693;29;20404;-85
2022/03/23 10:06:03;;;;;;;26.88;15.23;;;7.40;98.00;;;;;;4949752;29;20404;-86
2022/03/23 10:09:01;;;;;;;39.55;16.58;;;7.60;97.40;;;;;;4941126;28;20388;-84
2022/03/23 10:12:17;;;;;;;24.25;15.52;;;7.50;98.20;;;;;;4937431;29;20472;-86
2022/03/23 10:15:23;;;;;;;25.58;15.90;;;7.50;97.90;;;;;;4933762;29;20418;-85
2022/03/23 10:18:16;;;;;;;25.97;16.10;;;7.50;98.40;;;;;;4933568;29;20405;-85
2022/03/23 10:20:43;;;;;;;25.10;16.00;;;7.50;99.30;;;;;;4933765;29;20433;-85
2022/03/23 10:23:11;;;;;;;26.65;16.65;;;7.40;99.40;;;;;;4933600;29;20406;-86
2022/03/23 10:25:40;;;;;;;27.08;17.08;;;7.60;99.40;;;;;;4933576;29;20454;-85
2022/03/23 10:28:15;;;;;;;24.95;16.73;;;7.80;98.90;;;;;;4917636;29;20916;-86
2022/03/23 10:30:45;;;;;;;25.17;16.50;;;7.70;99.90;;;;;;4933353;29;20532;-84
2022/03/23 10:33:22;;;;;;;27.47;17.00;;;7.70;99.80;;;;;;4933429;29;20467;-84
2022/03/23 10:35:51;;;;;;;27.77;16.70;;;7.90;99.30;;;;;;4933293;29;20434;-84
2022/03/23 10:38:21;;;;;;;26.55;17.13;;;7.70;99.90;;;;;;4956902;28;20403;-84
2022/03/23 10:40:51;;;;;;;29.50;17.52;;;7.60;99.90;;;;;;4952065;29;20806;-84
2022/03/23 10:43:23;;;;;;;28.42;18.02;;;7.90;99.40;;;;;;4952282;29;20513;-84
2022/03/23 10:45:51;;;;;;;29.23;17.80;;;8.00;99.90;;;;;;4952095;29;20400;-84
2022/03/23 10:48:19;;;;;;;26.90;17.48;;;8.00;99.30;;;;;;4952053;29;20742;-84
2022/03/23 10:50:56;;;;;;;30.58;18.80;;;8.10;99.70;;;;;;4952051;29;20831;-84
2022/03/23 10:53:39;;;;;;;27.10;17.27;;;8.20;99.90;;;;;;4956072;29;20483;-84
2022/03/23 10:56:08;;;;;;;28.70;18.75;;;8.20;99.50;;;;;;4956090;29;20406;-84
2022/03/23 10:58:41;;;;;;;28.98;18.58;;;8.30;99.70;;;;;;4955709;29;20407;-84
2022/03/23 11:01:09;;;;;;;28.52;18.38;;;8.20;99.90;;;;;;4939107;29;20392;-85
2022/03/23 11:03:43;;;;;;;29.05;18.35;;;8.30;99.60;;;;;;4938082;29;20426;-84
2022/03/23 11:06:13;;;;;;;28.90;18.45;;;8.30;99.40;;;;;;4920979;29;20877;-84
2022/03/23 11:08:43;;;;;;;28.27;18.67;;;8.50;99.90;;;;;;4921188;29;20425;-85
2022/03/23 11:16:49;;;;;;;30.00;19.25;;;8.60;99.90;;;;;;4936415;29;20484;-85
2022/03/23 11:19:23;;;;;;;31.60;20.77;;;8.60;99.90;;;;;;4920892;29;20964;-85
2022/03/23 11:22:16;;;;;;;32.97;22.05;;;8.70;99.90;;;;;;4921663;29;20406;-84
2022/03/23 11:24:47;;;;;;;34.83;23.92;;;8.80;99.90;;;;;;4936371;29;20489;-85
2022/03/23 11:27:19;;;;;;;33.35;22.60;;;8.90;99.90;;;;;;4936359;29;20784;-85
2022/03/23 11:29:48;;;;;;;34.60;23.17;;;8.90;99.90;;;;;;4920825;29;20409;-85
2022/03/23 11:32:24;;;;;;;34.15;23.35;;;8.90;99.90;;;;;;4936273;29;20509;-85
2022/03/23 11:34:55;;;;;;;33.83;23.00;;;8.80;99.90;;;;;;4936421;29;20417;-85
2022/03/23 11:37:27;;;;;;;33.25;23.00;;;8.90;99.90;;;;;;4945176;29;20497;-85
2022/03/23 11:39:56;;;;;;;35.38;22.98;;;8.90;99.90;;;;;;4925628;29;20406;-85
2022/03/23 11:42:24;;;;;;;35.70;24.05;;;9.00;99.90;;;;;;4937804;29;20416;-85
2022/03/23 11:44:54;;;;;;;34.03;23.17;;;8.90;99.90;;;;;;4948740;29;20776;-85
2022/03/23 11:47:39;;;;;;;32.92;23.00;;;8.90;99.90;;;;;;4934021;29;20411;-84
2022/03/23 11:50:23;;;;;;;34.53;23.30;;;8.90;99.90;;;;;;4950996;29;20415;-85
2022/03/23 11:53:11;;;;;;;32.40;22.45;;;9.00;99.90;;;;;;4953653;28;20448;-85
2022/03/23 11:55:47;;;;;;;32.53;22.50;;;9.10;99.90;;;;;;4918417;28;20421;-84
2022/03/23 11:58:23;;;;;;;34.25;24.05;;;9.10;99.90;;;;;;4935617;29;20416;-85
2022/03/23 12:00:54;;;;;;;34.60;23.63;;;9.10;99.90;;;;;;4920113;29;20452;-85
2022/03/23 12:03:40;;;;;;;34.05;24.20;;;9.10;99.90;;;;;;4935217;29;20420;-85
2022/03/23 12:06:16;;;;;;;36.95;25.17;;;9.30;99.90;;;;;;4955100;29;20388;-85
2022/03/23 12:08:53;;;;;;;36.33;24.75;;;9.20;99.90;;;;;;4939165;29;20401;-85
2022/03/23 12:11:41;;;;;;;35.55;24.60;;;9.30;99.90;;;;;;4939150;29;20494;-85
2022/03/23 12:14:24;;;;;;;34.92;24.33;;;9.20;99.90;;;;;;4954751;29;20929;-85
2022/03/23 12:16:52;;;;;;;36.15;25.80;;;9.10;99.90;;;;;;4954822;29;20468;-85
2022/03/23 12:19:57;;;;;;;35.30;25.00;;;9.20;99.90;;;;;;4939396;29;20697;-85
2022/03/23 12:22:34;;;;;;;35.60;24.75;;;9.20;99.90;;;;;;4935554;29;20390;-85
2022/03/23 12:25:36;;;;;;;34.22;24.45;;;9.30;99.90;;;;;;4935519;29;20413;-85
2022/03/23 12:28:42;;;;;;;35.28;23.52;;;9.10;99.90;;;;;;4919850;29;20406;-85
2022/03/23 12:31:15;;;;;;;34.13;23.53;;;9.10;99.90;;;;;;4935470;29;20402;-85
2022/03/23 12:34:18;;;;;;;31.77;22.80;;;9.10;99.90;;;;;;4919828;29;20438;-85
2022/03/23 12:37:01;;;;;;;34.50;23.13;;;9.20;99.90;;;;;;4936533;29;20483;-85
2022/03/23 12:39:53;;;;;;;32.33;22.93;;;9.20;99.90;;;;;;4919510;29;20409;-85
2022/03/23 12:42:28;;;;;;;33.65;21.85;;;9.10;99.90;;;;;;4935316;29;20400;-85
2022/03/23 12:45:11;;;;;;;29.80;20.98;;;9.20;99.90;;;;;;4935127;29;20393;-85
2022/03/23 12:47:56;;;;;;;31.27;21.55;;;9.10;99.90;;;;;;4935187;29;20428;-85
2022/03/23 12:59:19;;;;;;;29.92;19.77;;;9.10;99.90;;;;;;4955095;28;20487;-84
2022/03/23 13:01:47;;;;;;;31.25;20.58;;;9.30;99.90;;;;;;4950581;29;20406;-87
2022/03/23 13:04:47;;;;;;;30.95;19.48;;;9.30;99.90;;;;;;4934732;29;20397;-86
2022/03/23 13:07:44;;;;;;;28.63;19.92;;;9.30;99.90;;;;;;4898462;29;20398;-86
2022/03/23 13:10:14;;;;;;;29.88;19.98;;;9.30;99.90;;;;;;4911210;29;20433;-87
2022/03/23 13:12:44;;;;;;;27.52;18.55;;;9.30;99.90;;;;;;4934555;29;20398;-87
2022/03/23 13:15:15;;;;;;;26.13;17.73;;;9.20;99.90;;;;;;4918049;29;20522;-87
2022/03/23 13:17:45;;;;;;;26.70;17.35;;;9.30;99.90;;;;;;4918927;29;20934;-87
2022/03/23 13:20:15;;;;;;;24.57;16.43;;;9.10;99.90;;;;;;4936106;29;20408;-86
2022/03/23 13:22:44;;;;;;;25.33;16.73;;;9.10;99.90;;;;;;4934380;29;20801;-86